createdAt,value
2018-10-05T00:02:00.982Z,2.110346
2018-10-05T00:07:55.977Z,0.81
2018-10-05T00:13:51.007Z,0.9
2018-10-05T00:19:45.997Z,0.99
2018-10-05T00:25:41.002Z,0.97
2018-10-05T00:31:36.084Z,0.84
2018-10-05T00:37:31.002Z,0.93
2018-10-05T00:43:25.996Z,1
2018-10-05T00:49:21.090Z,1.06
2018-10-05T00:55:16.029Z,1
2018-10-05T01:01:11.046Z,1.09
2018-10-05T01:07:06.056Z,1.06
2018-10-05T01:13:01.026Z,1.01
2018-10-05T01:18:56.024Z,0.94
2018-10-05T01:24:51.146Z,0.95
2018-10-05T01:30:46.054Z,1.05
2018-10-05T01:36:41.045Z,0.94
2018-10-05T01:42:36.059Z,1.12
2018-10-05T01:48:31.104Z,1.24
2018-10-05T01:54:26.086Z,1.02
2018-10-05T02:00:21.086Z,1.13
2018-10-05T02:06:16.127Z,1.02
2018-10-05T02:12:11.068Z,0.99
2018-10-05T02:18:06.147Z,1.06
2018-10-05T02:24:01.074Z,1.48
2018-10-05T02:29:56.092Z,1.13
2018-10-05T02:35:51.103Z,1.03
2018-10-05T02:41:46.247Z,1.32
2018-10-05T02:47:41.142Z,1.33
2018-10-05T02:53:36.103Z,1.06
2018-10-05T02:59:31.109Z,1.37
2018-10-05T03:05:26.100Z,1.23
2018-10-05T03:11:21.100Z,1.39
2018-10-05T03:17:16.136Z,1.39
2018-10-05T03:23:11.162Z,1.21
2018-10-05T03:29:06.116Z,1.07
2018-10-05T03:35:01.130Z,1.24
2018-10-05T03:40:56.147Z,1.32
2018-10-05T03:46:51.137Z,1.16
2018-10-05T03:52:46.172Z,1.32
2018-10-05T03:58:41.151Z,1.08
2018-10-05T04:04:36.183Z,1.02
2018-10-05T04:10:31.161Z,1.08
2018-10-05T04:16:26.166Z,1.52
2018-10-05T04:22:21.161Z,1.45
2018-10-05T04:28:16.187Z,1.42
2018-10-05T04:34:11.166Z,1.5
2018-10-05T04:40:06.165Z,1.48
2018-10-05T04:46:01.230Z,1.53
2018-10-05T04:51:56.231Z,1.62
2018-10-05T04:57:51.210Z,1.93
2018-10-05T05:03:46.223Z,1.8
2018-10-05T05:09:41.188Z,1.63
2018-10-05T05:15:36.189Z,1.72
2018-10-05T05:21:31.264Z,1.81
2018-10-05T05:27:26.196Z,1.56
2018-10-05T05:33:21.266Z,1.75
2018-10-05T05:39:16.206Z,2.39
2018-10-05T05:45:11.236Z,1.78
2018-10-05T05:51:06.238Z,1.73
2018-10-05T05:57:01.237Z,1.67
2018-10-05T06:02:56.246Z,1.87
2018-10-05T06:08:51.229Z,1.91
2018-10-05T06:14:46.256Z,1.86
2018-10-05T06:20:41.239Z,1.63
2018-10-05T06:26:36.272Z,1.66
2018-10-05T06:32:31.269Z,1.88
2018-10-05T06:38:26.272Z,1.62
2018-10-05T06:44:21.290Z,1.58
2018-10-05T06:50:16.275Z,1.73
2018-10-05T06:56:11.310Z,1.6
2018-10-05T07:02:06.279Z,1.8
2018-10-05T07:08:01.288Z,1.55
2018-10-05T07:13:56.293Z,1.53
2018-10-05T07:19:51.291Z,1.45
2018-10-05T07:25:46.348Z,1.42
2018-10-05T07:31:41.342Z,1.52
2018-10-05T07:37:36.295Z,1.61
2018-10-05T07:43:31.310Z,1.7
2018-10-05T07:49:26.348Z,1.79
2018-10-05T07:55:21.325Z,1.69
2018-10-05T08:01:16.314Z,1.64
2018-10-05T08:07:11.367Z,1.77
2018-10-05T08:13:06.314Z,1.57
2018-10-05T08:19:01.336Z,1.72
2018-10-05T08:24:56.345Z,1.63
2018-10-05T08:30:51.348Z,1.42
2018-10-05T08:36:46.358Z,1.59
2018-10-05T08:42:41.346Z,1.5
2018-10-05T08:48:36.391Z,1.51
2018-10-05T08:54:31.350Z,1.87
2018-10-05T09:00:26.407Z,1.71
2018-10-05T09:06:21.367Z,1.63
2018-10-05T09:12:16.368Z,2
2018-10-05T09:18:11.421Z,2.18
2018-10-05T09:24:06.489Z,1.75
2018-10-05T09:30:01.407Z,1.83
2018-10-05T09:35:56.386Z,1.9
2018-10-05T09:41:51.400Z,1.56
2018-10-05T09:47:46.400Z,1.62
2018-10-05T09:53:41.473Z,1.77
2018-10-05T09:59:36.480Z,1.87
2018-10-05T10:05:31.441Z,1.56
2018-10-05T10:11:26.414Z,1.73
2018-10-05T10:17:21.469Z,1.85
2018-10-05T10:23:16.451Z,1.63
2018-10-05T10:29:11.501Z,1.71
2018-10-05T10:35:06.457Z,1.87
2018-10-05T10:41:01.566Z,1.97
2018-10-05T10:46:56.451Z,1.69
2018-10-05T10:52:51.486Z,1.76
2018-10-05T10:58:46.468Z,1.85
2018-10-05T11:04:41.597Z,1.98
2018-10-05T11:10:36.481Z,2.07
2018-10-05T11:16:31.523Z,2.1
2018-10-05T11:22:26.498Z,2.17
2018-10-05T11:28:21.572Z,1.9
2018-10-05T11:34:16.582Z,2.33
2018-10-05T11:40:11.569Z,2
2018-10-05T11:46:06.510Z,2.08
2018-10-05T11:52:01.520Z,2.16
2018-10-05T11:57:56.533Z,1.86
2018-10-05T12:03:51.523Z,2.28
2018-10-05T12:09:46.576Z,2.19
2018-10-05T12:15:41.537Z,2.29
2018-10-05T12:21:36.537Z,2.56
2018-10-05T12:27:31.577Z,2.03
2018-10-05T12:33:26.536Z,2.2
2018-10-05T12:39:21.570Z,2
2018-10-05T12:45:16.616Z,2.06
2018-10-05T12:51:11.553Z,2.23
2018-10-05T12:57:06.569Z,2.39
2018-10-05T13:03:01.571Z,2.38
2018-10-05T13:08:56.611Z,2.42
2018-10-05T13:14:51.577Z,2.23
2018-10-05T13:20:46.597Z,2.6
2018-10-05T13:26:41.600Z,2.36
2018-10-05T13:32:36.626Z,2.48
2018-10-05T13:38:31.585Z,2.45
2018-10-05T13:44:26.605Z,2.23
2018-10-05T13:50:21.605Z,2.51
2018-10-05T13:56:16.602Z,3.13
2018-10-05T14:02:11.623Z,3.3
2018-10-05T14:08:06.616Z,3.53
2018-10-05T14:14:01.689Z,3.91
2018-10-05T14:19:56.658Z,3.97
2018-10-05T14:25:51.615Z,3.32
2018-10-05T14:31:46.638Z,3.06
2018-10-05T14:37:41.659Z,3.17
2018-10-05T14:43:36.639Z,3.15
2018-10-05T14:49:31.688Z,3.56
2018-10-05T14:55:26.757Z,3.5
2018-10-05T15:01:21.670Z,3.56
2018-10-05T15:07:16.710Z,3.67
2018-10-05T15:13:11.741Z,3.68
2018-10-05T15:19:06.756Z,3.17
2018-10-05T15:25:01.741Z,3.89
2018-10-05T15:30:56.705Z,2.53
2018-10-05T15:36:51.687Z,2.55
2018-10-05T15:42:46.701Z,2.57
2018-10-05T15:48:41.711Z,3
2018-10-05T15:54:36.697Z,3.2
2018-10-05T16:00:31.726Z,4.01
2018-10-05T16:06:26.721Z,3.21
2018-10-05T16:12:21.793Z,3.14
2018-10-05T16:18:16.720Z,2.84
2018-10-05T16:24:11.759Z,2.53
2018-10-05T16:30:06.723Z,2.75
2018-10-05T16:36:01.801Z,3.06
2018-10-05T16:41:56.721Z,3.46
2018-10-05T16:47:51.829Z,3.02
2018-10-05T16:53:46.748Z,3.56
2018-10-05T16:59:41.760Z,3.77
2018-10-05T17:05:36.752Z,4.45
2018-10-05T17:11:31.743Z,4.39
2018-10-05T17:17:26.807Z,4.67
2018-10-05T17:23:21.748Z,4.73
2018-10-05T17:29:16.807Z,5.33
2018-10-05T17:35:11.961Z,5.03
2018-10-05T17:41:06.776Z,4.82
2018-10-05T17:47:01.788Z,4.07
2018-10-05T17:52:56.806Z,4.78
2018-10-05T17:58:51.807Z,4.76
2018-10-05T18:04:46.812Z,4.89
2018-10-05T18:10:41.799Z,4.28
2018-10-05T18:16:36.832Z,4.96
2018-10-05T18:22:31.829Z,3.51
2018-10-05T18:28:27.660Z,4.71
2018-10-05T18:34:21.882Z,4.88
2018-10-05T18:40:16.827Z,4.76
2018-10-05T18:46:11.830Z,4.5
2018-10-05T18:52:06.824Z,4.93
2018-10-05T18:58:01.841Z,4.88
2018-10-05T19:03:56.817Z,4.23
2018-10-05T19:09:51.829Z,4.24
2018-10-05T19:15:46.851Z,3.62
2018-10-05T19:21:41.880Z,3.7
2018-10-05T19:27:36.971Z,4.02
2018-10-05T19:33:31.848Z,3.76
2018-10-05T19:39:26.875Z,3.62
2018-10-05T19:45:21.886Z,3.94
2018-10-05T19:51:16.915Z,4.26
2018-10-05T19:57:11.885Z,3.72
2018-10-05T20:03:06.874Z,3.95
2018-10-05T20:09:01.930Z,4.17
2018-10-05T20:14:56.885Z,3.46
2018-10-05T20:20:51.900Z,3.47
2018-10-05T20:26:46.918Z,3.84
2018-10-05T20:32:42.042Z,3.73
2018-10-05T20:38:36.985Z,3.53
2018-10-05T20:44:31.932Z,3.46
2018-10-05T20:50:27.000Z,3.71
2018-10-05T20:56:21.956Z,3.35
2018-10-05T21:02:16.935Z,3.54
2018-10-05T21:08:11.946Z,3.61
2018-10-05T21:14:06.932Z,3.78
2018-10-05T21:20:01.937Z,3.49
2018-10-05T21:25:56.971Z,3.46
2018-10-05T21:31:51.964Z,4.43
2018-10-05T21:37:46.953Z,4.07
2018-10-05T21:43:41.965Z,4.21
2018-10-05T21:49:36.965Z,4.46
2018-10-05T21:55:31.949Z,4.54
2018-10-05T22:01:26.951Z,4.29
2018-10-05T22:07:21.960Z,5.08
2018-10-05T22:13:16.962Z,4.77
2018-10-05T22:19:11.964Z,5.04
2018-10-05T22:25:06.976Z,4.84
2018-10-05T22:31:02.010Z,5.17
2018-10-05T22:36:56.997Z,4.95
2018-10-05T22:42:52.006Z,4.92
2018-10-05T22:48:47.006Z,4.53
2018-10-05T22:54:42.014Z,4.4
2018-10-05T23:00:37.014Z,4.1
2018-10-05T23:06:31.994Z,4.4
2018-10-05T23:12:27.010Z,4.39
2018-10-05T23:18:22.020Z,4.47
2018-10-05T23:24:17.018Z,4.42
2018-10-05T23:30:12.053Z,4
2018-10-05T23:36:07.039Z,4.52
2018-10-05T23:42:02.035Z,4.59
2018-10-05T23:47:57.043Z,4.71
2018-10-05T23:53:52.035Z,4.71
2018-10-05T23:59:47.081Z,4.27
